Terminal Aerodrome Forecast
Issued by NWS Portland, OR

Home | Current Version | Previous Version | Text Only | Print | Product List | Glossary On
Versions: 1 2 3 4 5 6 7 8 9 10 11 12 13 14 15 16 17 18 19 20 21 22 23 24
987
FTUS46 KPQR 241731
TAFHIO
TAF
KHIO 241731Z 2418/2518 01006KT P6SM SKC
     FM242300 33012KT P6SM SCT250
     FM250600 30005KT P6SM SCT250=

USA.gov is the U.S. government's official web portal to all federal, state and local government web resources and services.